sensor_id;sensor_type;location;lat;lon;timestamp;pressure;altitude;pressure_sealevel;temperature;humidity
17593;BME280;8915;51.760;14.300;2023-07-13T00:01:53;100612.69;;;21.47;58.16
17593;BME280;8915;51.760;14.300;2023-07-13T00:04:23;100611.56;;;21.44;58.18
17593;BME280;8915;51.760;14.300;2023-07-13T00:06:50;100623.03;;;21.45;58.08
17593;BME280;8915;51.760;14.300;2023-07-13T00:09:18;100614.25;;;21.44;58.47
17593;BME280;8915;51.760;14.300;2023-07-13T00:11:45;100625.72;;;21.45;58.37
17593;BME280;8915;51.760;14.300;2023-07-13T00:14:13;100633.03;;;21.44;58.94
17593;BME280;8915;51.760;14.300;2023-07-13T00:16:42;100629.94;;;21.46;59.04
17593;BME280;8915;51.760;14.300;2023-07-13T00:19:09;100626.91;;;21.44;59.04
17593;BME280;8915;51.760;14.300;2023-07-13T00:21:35;100634.56;;;21.45;59.22
17593;BME280;8915;51.760;14.300;2023-07-13T00:24:02;100633.78;;;21.45;59.57
17593;BME280;8915;51.760;14.300;2023-07-13T00:26:28;100628.41;;;21.45;59.07
17593;BME280;8915;51.760;14.300;2023-07-13T00:28:57;100629.59;;;21.44;58.81
17593;BME280;8915;51.760;14.300;2023-07-13T00:31:24;100629.19;;;21.45;58.36
17593;BME280;8915;51.760;14.300;2023-07-13T00:33:57;100628.41;;;21.45;58.70
17593;BME280;8915;51.760;14.300;2023-07-13T00:36:25;100624.22;;;21.44;58.11
17593;BME280;8915;51.760;14.300;2023-07-13T00:38:52;100625.38;;;21.43;58.64
17593;BME280;8915;51.760;14.300;2023-07-13T00:41:19;100639.19;;;21.41;58.65
17593;BME280;8915;51.760;14.300;2023-07-13T00:43:45;100639.97;;;21.42;57.54
17593;BME280;8915;51.760;14.300;2023-07-13T00:46:19;100632.66;;;21.42;57.13
17593;BME280;8915;51.760;14.300;2023-07-13T00:48:45;100629.63;;;21.40;56.30
17593;BME280;8915;51.760;14.300;2023-07-13T00:51:16;100623.84;;;21.38;54.27
17593;BME280;8915;51.760;14.300;2023-07-13T00:53:44;100602.00;;;21.36;53.21
17593;BME280;8915;51.760;14.300;2023-07-13T00:56:10;100590.13;;;21.34;53.67
17593;BME280;8915;51.760;14.300;2023-07-13T00:58:37;100590.16;;;21.30;53.07
17593;BME280;8915;51.760;14.300;2023-07-13T01:01:04;100588.25;;;21.27;54.58
17593;BME280;8915;51.760;14.300;2023-07-13T01:03:32;100597.88;;;21.25;56.73
17593;BME280;8915;51.760;14.300;2023-07-13T01:06:00;100606.78;;;21.18;55.13
17593;BME280;8915;51.760;14.300;2023-07-13T01:08:28;100605.25;;;21.14;54.65
17593;BME280;8915;51.760;14.300;2023-07-13T01:10:56;100609.88;;;21.10;55.46
17593;BME280;8915;51.760;14.300;2023-07-13T01:13:23;100597.66;;;21.05;56.02
17593;BME280;8915;51.760;14.300;2023-07-13T01:15:51;100604.22;;;21.01;56.53
17593;BME280;8915;51.760;14.300;2023-07-13T01:18:20;100604.63;;;20.96;56.44
17593;BME280;8915;51.760;14.300;2023-07-13T01:20:53;100618.09;;;20.92;57.21
17593;BME280;8915;51.760;14.300;2023-07-13T01:23:20;100620.00;;;20.88;58.22
17593;BME280;8915;51.760;14.300;2023-07-13T01:25:48;100621.16;;;20.87;58.34
17593;BME280;8915;51.760;14.300;2023-07-13T01:28:14;100621.94;;;20.84;57.91
17593;BME280;8915;51.760;14.300;2023-07-13T01:30:42;100617.72;;;20.83;57.82
17593;BME280;8915;51.760;14.300;2023-07-13T01:33:11;100624.66;;;20.81;57.96
17593;BME280;8915;51.760;14.300;2023-07-13T01:35:38;100632.31;;;20.79;58.74
17593;BME280;8915;51.760;14.300;2023-07-13T01:38:06;100627.72;;;20.79;58.84
17593;BME280;8915;51.760;14.300;2023-07-13T01:40:34;100634.63;;;20.77;59.28
17593;BME280;8915;51.760;14.300;2023-07-13T01:43:01;100634.25;;;20.75;59.06
17593;BME280;8915;51.760;14.300;2023-07-13T01:45:28;100623.91;;;20.73;58.55
17593;BME280;8915;51.760;14.300;2023-07-13T01:47:54;100627.00;;;20.72;58.46
17593;BME280;8915;51.760;14.300;2023-07-13T01:50:21;100630.47;;;20.69;57.74
17593;BME280;8915;51.760;14.300;2023-07-13T01:52:47;100633.91;;;20.66;58.09
17593;BME280;8915;51.760;14.300;2023-07-13T01:55:15;100637.38;;;20.66;59.24
17593;BME280;8915;51.760;14.300;2023-07-13T01:57:41;100636.59;;;20.66;59.39
17593;BME280;8915;51.760;14.300;2023-07-13T02:00:10;100639.28;;;20.66;59.64
17593;BME280;8915;51.760;14.300;2023-07-13T02:02:46;100624.72;;;20.63;59.03
17593;BME280;8915;51.760;14.300;2023-07-13T02:05:13;100630.50;;;20.62;58.94
17593;BME280;8915;51.760;14.300;2023-07-13T02:07:40;100630.88;;;20.60;60.29
17593;BME280;8915;51.760;14.300;2023-07-13T02:10:08;100630.13;;;20.60;59.84
17593;BME280;8915;51.760;14.300;2023-07-13T02:12:37;100633.19;;;20.58;58.62
17593;BME280;8915;51.760;14.300;2023-07-13T02:15:04;100630.91;;;20.57;58.70
17593;BME280;8915;51.760;14.300;2023-07-13T02:17:31;100635.91;;;20.55;59.43
17593;BME280;8915;51.760;14.300;2023-07-13T02:19:58;100644.69;;;20.55;59.88
17593;BME280;8915;51.760;14.300;2023-07-13T02:22:24;100633.97;;;20.55;59.36
17593;BME280;8915;51.760;14.300;2023-07-13T02:24:51;100628.59;;;20.55;58.94
17593;BME280;8915;51.760;14.300;2023-07-13T02:27:17;100638.19;;;20.53;57.62
17593;BME280;8915;51.760;14.300;2023-07-13T02:29:45;100636.66;;;20.52;58.04
17593;BME280;8915;51.760;14.300;2023-07-13T02:32:12;100635.53;;;20.49;58.74
17593;BME280;8915;51.760;14.300;2023-07-13T02:34:40;100629.00;;;20.50;59.29
17593;BME280;8915;51.760;14.300;2023-07-13T02:37:07;100627.13;;;20.47;59.66
17593;BME280;8915;51.760;14.300;2023-07-13T02:39:34;100617.53;;;20.46;60.03
17593;BME280;8915;51.760;14.300;2023-07-13T02:42:02;100633.28;;;20.41;59.01
17593;BME280;8915;51.760;14.300;2023-07-13T02:44:29;100636.75;;;20.38;59.66
17593;BME280;8915;51.760;14.300;2023-07-13T02:46:57;100637.16;;;20.33;58.45
17593;BME280;8915;51.760;14.300;2023-07-13T02:49:23;100640.97;;;20.32;58.83
17593;BME280;8915;51.760;14.300;2023-07-13T02:51:50;100632.56;;;20.30;59.58
17593;BME280;8915;51.760;14.300;2023-07-13T02:54:17;100639.44;;;20.27;59.71
17593;BME280;8915;51.760;14.300;2023-07-13T02:56:43;100640.63;;;20.23;60.41
17593;BME280;8915;51.760;14.300;2023-07-13T02:59:10;100638.31;;;20.21;60.73
17593;BME280;8915;51.760;14.300;2023-07-13T03:01:37;100651.00;;;20.14;59.85
17593;BME280;8915;51.760;14.300;2023-07-13T03:04:05;100649.84;;;20.04;59.54
17593;BME280;8915;51.760;14.300;2023-07-13T03:06:34;100655.59;;;19.99;60.58
17593;BME280;8915;51.760;14.300;2023-07-13T03:09:01;100654.47;;;19.97;60.16
17593;BME280;8915;51.760;14.300;2023-07-13T03:11:30;100646.78;;;19.95;60.66
17593;BME280;8915;51.760;14.300;2023-07-13T03:14:12;100651.00;;;19.93;61.20
17593;BME280;8915;51.760;14.300;2023-07-13T03:16:39;100657.13;;;19.90;60.24
17593;BME280;8915;51.760;14.300;2023-07-13T03:19:07;100662.88;;;19.88;60.73
17593;BME280;8915;51.760;14.300;2023-07-13T03:21:34;100670.91;;;19.88;60.64
17593;BME280;8915;51.760;14.300;2023-07-13T03:24:01;100673.59;;;19.88;60.77
17593;BME280;8915;51.760;14.300;2023-07-13T03:26:27;100667.47;;;19.88;61.20
17593;BME280;8915;51.760;14.300;2023-07-13T03:28:55;100670.19;;;19.84;58.16
17593;BME280;8915;51.760;14.300;2023-07-13T03:31:25;100662.13;;;19.84;58.59
17593;BME280;8915;51.760;14.300;2023-07-13T03:33:53;100673.59;;;19.85;59.97
17593;BME280;8915;51.760;14.300;2023-07-13T03:36:24;100678.22;;;19.84;59.28
17593;BME280;8915;51.760;14.300;2023-07-13T03:38:56;100679.38;;;19.83;60.06
17593;BME280;8915;51.760;14.300;2023-07-13T03:41:25;100685.84;;;19.82;59.67
17593;BME280;8915;51.760;14.300;2023-07-13T03:43:54;100693.16;;;19.82;58.17
17593;BME280;8915;51.760;14.300;2023-07-13T03:46:23;100692.78;;;19.83;59.88
17593;BME280;8915;51.760;14.300;2023-07-13T03:48:49;100699.28;;;19.86;59.92
17593;BME280;8915;51.760;14.300;2023-07-13T03:51:16;100687.78;;;19.89;60.41
17593;BME280;8915;51.760;14.300;2023-07-13T03:53:46;100690.44;;;19.89;59.15
17593;BME280;8915;51.760;14.300;2023-07-13T03:56:15;100685.09;;;19.92;60.03
17593;BME280;8915;51.760;14.300;2023-07-13T03:58:44;100687.75;;;19.96;59.77
17593;BME280;8915;51.760;14.300;2023-07-13T04:01:19;100693.13;;;19.96;60.13
17593;BME280;8915;51.760;14.300;2023-07-13T04:03:46;100688.53;;;19.96;60.71
17593;BME280;8915;51.760;14.300;2023-07-13T04:06:15;100693.13;;;19.99;60.40
17593;BME280;8915;51.760;14.300;2023-07-13T04:08:48;100709.19;;;19.96;60.28
17593;BME280;8915;51.760;14.300;2023-07-13T04:11:16;100719.16;;;19.99;60.91
17593;BME280;8915;51.760;14.300;2023-07-13T04:13:43;100709.59;;;20.01;59.78
17593;BME280;8915;51.760;14.300;2023-07-13T04:16:10;100709.94;;;20.03;60.49
17593;BME280;8915;51.760;14.300;2023-07-13T04:18:37;100711.88;;;20.06;60.32
17593;BME280;8915;51.760;14.300;2023-07-13T04:21:03;100715.38;;;20.07;60.29
17593;BME280;8915;51.760;14.300;2023-07-13T04:23:29;100710.34;;;20.12;60.87
17593;BME280;8915;51.760;14.300;2023-07-13T04:25:57;100721.09;;;20.12;60.56
17593;BME280;8915;51.760;14.300;2023-07-13T04:28:25;100718.03;;;20.14;61.83
17593;BME280;8915;51.760;14.300;2023-07-13T04:30:52;100723.38;;;20.17;61.75
17593;BME280;8915;51.760;14.300;2023-07-13T04:33:19;100720.69;;;20.17;59.61
17593;BME280;8915;51.760;14.300;2023-07-13T04:35:47;100726.81;;;20.21;59.21
17593;BME280;8915;51.760;14.300;2023-07-13T04:38:14;100729.13;;;20.23;60.25
17593;BME280;8915;51.760;14.300;2023-07-13T04:40:42;100729.13;;;20.26;59.76
17593;BME280;8915;51.760;14.300;2023-07-13T04:43:10;100738.31;;;20.29;58.63
17593;BME280;8915;51.760;14.300;2023-07-13T04:45:36;100724.50;;;20.30;58.76
17593;BME280;8915;51.760;14.300;2023-07-13T04:48:03;100735.59;;;20.36;58.59
17593;BME280;8915;51.760;14.300;2023-07-13T04:50:29;100732.16;;;20.39;58.12
17593;BME280;8915;51.760;14.300;2023-07-13T04:52:56;100738.28;;;20.43;57.51
17593;BME280;8915;51.760;14.300;2023-07-13T04:55:23;100737.47;;;20.49;58.73
17593;BME280;8915;51.760;14.300;2023-07-13T04:57:49;100744.38;;;20.54;57.87
17593;BME280;8915;51.760;14.300;2023-07-13T05:00:17;100748.94;;;20.57;58.27
17593;BME280;8915;51.760;14.300;2023-07-13T05:02:45;100738.97;;;20.61;57.85
17593;BME280;8915;51.760;14.300;2023-07-13T05:05:11;100758.16;;;20.66;58.95
17593;BME280;8915;51.760;14.300;2023-07-13T05:07:38;100747.41;;;20.66;58.19
17593;BME280;8915;51.760;14.300;2023-07-13T05:10:05;100770.03;;;20.69;58.36
17593;BME280;8915;51.760;14.300;2023-07-13T05:12:32;100764.66;;;20.69;59.63
17593;BME280;8915;51.760;14.300;2023-07-13T05:14:58;100772.31;;;20.67;58.70
17593;BME280;8915;51.760;14.300;2023-07-13T05:17:26;100769.59;;;20.70;58.14
17593;BME280;8915;51.760;14.300;2023-07-13T05:19:53;100769.22;;;20.72;57.63
17593;BME280;8915;51.760;14.300;2023-07-13T05:22:19;100758.47;;;20.75;58.01
17593;BME280;8915;51.760;14.300;2023-07-13T05:24:45;100762.31;;;20.78;57.56
17593;BME280;8915;51.760;14.300;2023-07-13T05:27:12;100761.94;;;20.72;56.01
17593;BME280;8915;51.760;14.300;2023-07-13T05:29:38;100762.31;;;20.78;57.37
17593;BME280;8915;51.760;14.300;2023-07-13T05:32:05;100762.31;;;20.78;55.60
17593;BME280;8915;51.760;14.300;2023-07-13T05:34:33;100764.97;;;20.78;56.30
17593;BME280;8915;51.760;14.300;2023-07-13T05:36:59;100763.06;;;20.82;56.72
17593;BME280;8915;51.760;14.300;2023-07-13T05:39:25;100769.19;;;20.86;57.89
17593;BME280;8915;51.760;14.300;2023-07-13T05:41:52;100775.34;;;20.90;57.74
17593;BME280;8915;51.760;14.300;2023-07-13T05:44:19;100787.19;;;20.96;57.97
17593;BME280;8915;51.760;14.300;2023-07-13T05:46:45;100783.34;;;21.00;57.42
17593;BME280;8915;51.760;14.300;2023-07-13T05:49:12;100779.84;;;21.07;56.58
17593;BME280;8915;51.760;14.300;2023-07-13T05:51:39;100774.84;;;21.12;56.29
17593;BME280;8915;51.760;14.300;2023-07-13T05:54:06;100780.97;;;21.16;56.08
17593;BME280;8915;51.760;14.300;2023-07-13T05:56:32;100777.88;;;21.21;56.28
17593;BME280;8915;51.760;14.300;2023-07-13T05:58:58;100778.25;;;21.23;56.29
17593;BME280;8915;51.760;14.300;2023-07-13T06:01:25;100783.59;;;21.27;57.44
17593;BME280;8915;51.760;14.300;2023-07-13T06:03:51;100788.94;;;21.30;58.57
17593;BME280;8915;51.760;14.300;2023-07-13T06:06:17;100788.94;;;21.34;57.61
17593;BME280;8915;51.760;14.300;2023-07-13T06:08:45;100795.81;;;21.38;57.35
17593;BME280;8915;51.760;14.300;2023-07-13T06:11:14;100786.97;;;21.41;56.51
17593;BME280;8915;51.760;14.300;2023-07-13T06:13:43;100787.75;;;21.42;56.57
17593;BME280;8915;51.760;14.300;2023-07-13T06:16:10;100790.78;;;21.44;56.18
17593;BME280;8915;51.760;14.300;2023-07-13T06:18:37;100778.84;;;21.48;56.89
17593;BME280;8915;51.760;14.300;2023-07-13T06:21:08;100787.28;;;21.54;56.45
17593;BME280;8915;51.760;14.300;2023-07-13T06:23:34;100775.34;;;21.58;55.08
17593;BME280;8915;51.760;14.300;2023-07-13T06:26:03;100774.53;;;21.65;53.92
17593;BME280;8915;51.760;14.300;2023-07-13T06:28:30;100783.34;;;21.72;54.83
17593;BME280;8915;51.760;14.300;2023-07-13T06:30:57;100779.09;;;21.75;54.79
17593;BME280;8915;51.760;14.300;2023-07-13T06:33:23;100774.81;;;21.81;55.56
17593;BME280;8915;51.760;14.300;2023-07-13T06:35:49;100774.00;;;21.87;55.12
17593;BME280;8915;51.760;14.300;2023-07-13T06:38:16;100779.31;;;21.94;54.71
17593;BME280;8915;51.760;14.300;2023-07-13T06:40:42;100779.28;;;22.01;54.70
17593;BME280;8915;51.760;14.300;2023-07-13T06:43:10;100776.91;;;22.07;52.70
17593;BME280;8915;51.760;14.300;2023-07-13T06:45:40;100781.81;;;22.15;52.98
17593;BME280;8915;51.760;14.300;2023-07-13T06:48:07;100774.47;;;22.23;52.50
17593;BME280;8915;51.760;14.300;2023-07-13T06:50:33;100776.69;;;22.31;53.27
17593;BME280;8915;51.760;14.300;2023-07-13T06:53:00;100778.50;;;22.41;52.11
17593;BME280;8915;51.760;14.300;2023-07-13T06:55:26;100771.16;;;22.49;52.50
17593;BME280;8915;51.760;14.300;2023-07-13T06:57:53;100774.91;;;22.58;50.89
17593;BME280;8915;51.760;14.300;2023-07-13T07:00:21;100769.78;;;22.67;51.19
17593;BME280;8915;51.760;14.300;2023-07-13T07:02:47;100773.91;;;22.79;52.33
17593;BME280;8915;51.760;14.300;2023-07-13T07:05:14;100771.50;;;22.88;50.36
17593;BME280;8915;51.760;14.300;2023-07-13T07:07:40;100774.81;;;22.99;50.72
17593;BME280;8915;51.760;14.300;2023-07-13T07:10:07;100779.69;;;23.07;50.56
17593;BME280;8915;51.760;14.300;2023-07-13T07:12:34;100776.13;;;23.17;49.55
17593;BME280;8915;51.760;14.300;2023-07-13T07:15:00;100775.22;;;23.27;49.46
17593;BME280;8915;51.760;14.300;2023-07-13T07:17:28;100776.25;;;23.37;49.15
17593;BME280;8915;51.760;14.300;2023-07-13T07:19:54;100783.00;;;23.48;49.12
17593;BME280;8915;51.760;14.300;2023-07-13T07:22:21;100784.41;;;23.60;48.08
17593;BME280;8915;51.760;14.300;2023-07-13T07:24:47;100785.75;;;23.72;48.04
17593;BME280;8915;51.760;14.300;2023-07-13T07:27:14;100792.16;;;23.81;45.53
17593;BME280;8915;51.760;14.300;2023-07-13T07:29:40;100788.91;;;23.93;47.48
17593;BME280;8915;51.760;14.300;2023-07-13T07:32:07;100786.44;;;24.02;45.66
17593;BME280;8915;51.760;14.300;2023-07-13T07:34:35;100791.66;;;24.13;44.44
17593;BME280;8915;51.760;14.300;2023-07-13T07:37:02;100793.00;;;24.24;45.54
17593;BME280;8915;51.760;14.300;2023-07-13T07:39:29;100794.00;;;24.34;43.93
17593;BME280;8915;51.760;14.300;2023-07-13T07:41:55;100793.09;;;24.40;41.88
17593;BME280;8915;51.760;14.300;2023-07-13T07:44:22;100798.72;;;24.49;42.34
17593;BME280;8915;51.760;14.300;2023-07-13T07:46:48;100801.69;;;24.58;45.39
17593;BME280;8915;51.760;14.300;2023-07-13T07:49:15;100800.03;;;24.64;42.74
17593;BME280;8915;51.760;14.300;2023-07-13T07:51:42;100804.47;;;24.74;42.83
17593;BME280;8915;51.760;14.300;2023-07-13T07:54:09;100807.63;;;24.89;41.22
17593;BME280;8915;51.760;14.300;2023-07-13T07:56:35;100805.34;;;25.07;42.91
17593;BME280;8915;51.760;14.300;2023-07-13T07:59:01;100803.50;;;25.20;43.44
17593;BME280;8915;51.760;14.300;2023-07-13T08:01:28;100808.66;;;25.34;43.59
17593;BME280;8915;51.760;14.300;2023-07-13T08:03:54;100811.97;;;25.41;41.28
17593;BME280;8915;51.760;14.300;2023-07-13T08:06:21;100815.69;;;25.47;41.51
17593;BME280;8915;51.760;14.300;2023-07-13T08:08:49;100823.63;;;25.54;41.90
17593;BME280;8915;51.760;14.300;2023-07-13T08:11:16;100817.91;;;25.68;42.81
17593;BME280;8915;51.760;14.300;2023-07-13T08:13:42;100816.72;;;25.85;41.44
17593;BME280;8915;51.760;14.300;2023-07-13T08:16:09;100811.03;;;25.99;41.94
17593;BME280;8915;51.760;14.300;2023-07-13T08:18:37;100816.50;;;26.12;40.23
17593;BME280;8915;51.760;14.300;2023-07-13T08:21:04;100826.31;;;26.22;39.93
17593;BME280;8915;51.760;14.300;2023-07-13T08:23:31;100821.66;;;26.22;38.84
17593;BME280;8915;51.760;14.300;2023-07-13T08:25:58;100825.28;;;26.32;39.88
17593;BME280;8915;51.760;14.300;2023-07-13T08:28:27;100827.72;;;26.42;38.86
17593;BME280;8915;51.760;14.300;2023-07-13T08:30:53;100821.53;;;26.42;39.77
17593;BME280;8915;51.760;14.300;2023-07-13T08:33:21;100829.25;;;26.43;39.37
17593;BME280;8915;51.760;14.300;2023-07-13T08:35:49;100828.47;;;26.43;37.33
17593;BME280;8915;51.760;14.300;2023-07-13T08:38:17;100819.69;;;26.39;37.54
17593;BME280;8915;51.760;14.300;2023-07-13T08:40:45;100822.06;;;26.37;39.07
17593;BME280;8915;51.760;14.300;2023-07-13T08:43:18;100826.28;;;26.38;38.40
17593;BME280;8915;51.760;14.300;2023-07-13T08:45:51;100825.50;;;26.37;36.98
17593;BME280;8915;51.760;14.300;2023-07-13T08:48:24;100823.91;;;26.40;36.57
17593;BME280;8915;51.760;14.300;2023-07-13T08:50:57;100821.88;;;26.44;39.06
17593;BME280;8915;51.760;14.300;2023-07-13T08:53:28;100827.53;;;26.49;38.65
17593;BME280;8915;51.760;14.300;2023-07-13T08:55:59;100824.47;;;26.47;38.22
17593;BME280;8915;51.760;14.300;2023-07-13T08:58:28;100820.44;;;26.55;37.28
17593;BME280;8915;51.760;14.300;2023-07-13T09:00:59;100828.47;;;26.59;37.92
17593;BME280;8915;51.760;14.300;2023-07-13T09:03:34;100820.13;;;26.66;37.69
17593;BME280;8915;51.760;14.300;2023-07-13T09:06:02;100821.06;;;26.75;37.77
17593;BME280;8915;51.760;14.300;2023-07-13T09:08:38;100822.03;;;26.81;37.28
17593;BME280;8915;51.760;14.300;2023-07-13T09:11:23;100826.06;;;26.89;37.88
17593;BME280;8915;51.760;14.300;2023-07-13T09:14:01;100815.47;;;26.95;36.90
17593;BME280;8915;51.760;14.300;2023-07-13T09:16:29;100823.50;;;26.98;37.26
17593;BME280;8915;51.760;14.300;2023-07-13T09:18:59;100821.97;;;26.97;37.68
17593;BME280;8915;51.760;14.300;2023-07-13T09:21:31;100818.94;;;26.95;38.76
17593;BME280;8915;51.760;14.300;2023-07-13T09:24:00;100829.13;;;26.91;38.33
17593;BME280;8915;51.760;14.300;2023-07-13T09:26:29;100825.59;;;26.78;38.00
17593;BME280;8915;51.760;14.300;2023-07-13T09:29:01;100831.03;;;26.78;38.64
17593;BME280;8915;51.760;14.300;2023-07-13T09:31:33;100825.81;;;26.71;39.06
17593;BME280;8915;51.760;14.300;2023-07-13T09:34:01;100833.25;;;26.67;37.46
17593;BME280;8915;51.760;14.300;2023-07-13T09:36:28;100832.59;;;26.63;38.48
17593;BME280;8915;51.760;14.300;2023-07-13T09:38:59;100838.38;;;26.49;38.20
17593;BME280;8915;51.760;14.300;2023-07-13T09:41:33;100843.44;;;26.47;37.92
17593;BME280;8915;51.760;14.300;2023-07-13T09:44:12;100845.56;;;26.40;37.62
17593;BME280;8915;51.760;14.300;2023-07-13T09:46:44;100843.31;;;26.38;37.38
17593;BME280;8915;51.760;14.300;2023-07-13T09:49:11;100835.69;;;26.33;39.71
17593;BME280;8915;51.760;14.300;2023-07-13T09:51:38;100834.22;;;26.45;39.29
17593;BME280;8915;51.760;14.300;2023-07-13T09:54:04;100835.88;;;26.55;37.83
17593;BME280;8915;51.760;14.300;2023-07-13T09:56:31;100824.03;;;26.65;37.68
17593;BME280;8915;51.760;14.300;2023-07-13T09:58:58;100822.91;;;26.78;36.51
17593;BME280;8915;51.760;14.300;2023-07-13T10:01:35;100822.09;;;26.94;38.54
17593;BME280;8915;51.760;14.300;2023-07-13T10:04:10;100818.00;;;27.14;38.80
17593;BME280;8915;51.760;14.300;2023-07-13T10:06:38;100831.31;;;27.37;38.83
17593;BME280;8915;51.760;14.300;2023-07-13T10:09:07;100823.72;;;27.57;37.92
17593;BME280;8915;51.760;14.300;2023-07-13T10:11:36;100831.84;;;27.70;35.96
17593;BME280;8915;51.760;14.300;2023-07-13T10:14:10;100825.41;;;27.76;35.48
17593;BME280;8915;51.760;14.300;2023-07-13T10:16:41;100838.16;;;27.79;34.64
17593;BME280;8915;51.760;14.300;2023-07-13T10:19:12;100832.81;;;27.76;35.06
17593;BME280;8915;51.760;14.300;2023-07-13T10:21:46;100845.50;;;27.66;35.41
17593;BME280;8915;51.760;14.300;2023-07-13T10:24:16;100839.00;;;27.64;35.56
17593;BME280;8915;51.760;14.300;2023-07-13T10:26:47;100839.88;;;27.61;35.63
17593;BME280;8915;51.760;14.300;2023-07-13T10:29:14;100849.41;;;27.65;36.37
17593;BME280;8915;51.760;14.300;2023-07-13T10:31:45;100842.47;;;27.64;35.90
17593;BME280;8915;51.760;14.300;2023-07-13T10:34:12;100845.19;;;27.64;36.36
17593;BME280;8915;51.760;14.300;2023-07-13T10:36:41;100839.00;;;27.64;36.97
17593;BME280;8915;51.760;14.300;2023-07-13T10:39:15;100839.00;;;27.64;36.75
17593;BME280;8915;51.760;14.300;2023-07-13T10:41:44;100846.16;;;27.58;36.88
17593;BME280;8915;51.760;14.300;2023-07-13T10:44:19;100840.97;;;27.51;36.24
17593;BME280;8915;51.760;14.300;2023-07-13T10:46:53;100841.16;;;27.56;35.91
17593;BME280;8915;51.760;14.300;2023-07-13T10:49:22;100843.13;;;27.68;35.53
17593;BME280;8915;51.760;14.300;2023-07-13T10:51:48;100840.97;;;27.76;35.06
17593;BME280;8915;51.760;14.300;2023-07-13T10:54:19;100840.88;;;27.79;34.17
17593;BME280;8915;51.760;14.300;2023-07-13T10:56:50;100838.56;;;27.78;35.65
17593;BME280;8915;51.760;14.300;2023-07-13T10:59:18;100843.69;;;27.76;35.74
17593;BME280;8915;51.760;14.300;2023-07-13T11:01:53;100843.75;;;27.72;35.79
17593;BME280;8915;51.760;14.300;2023-07-13T11:04:21;100845.06;;;27.68;36.04
17593;BME280;8915;51.760;14.300;2023-07-13T11:06:52;100842.25;;;27.59;36.01
17593;BME280;8915;51.760;14.300;2023-07-13T11:09:34;100835.31;;;27.58;34.08
17593;BME280;8915;51.760;14.300;2023-07-13T11:12:07;100838.69;;;27.62;35.04
17593;BME280;8915;51.760;14.300;2023-07-13T11:14:37;100837.38;;;27.66;34.66
17593;BME280;8915;51.760;14.300;2023-07-13T11:17:32;100830.75;;;27.80;33.76
17593;BME280;8915;51.760;14.300;2023-07-13T11:20:09;100834.13;;;27.96;33.78
17593;BME280;8915;51.760;14.300;2023-07-13T11:22:44;100834.22;;;28.05;34.05
17593;BME280;8915;51.760;14.300;2023-07-13T11:25:25;100824.31;;;28.11;34.35
17593;BME280;8915;51.760;14.300;2023-07-13T11:28:05;100816.47;;;28.13;34.02
17593;BME280;8915;51.760;14.300;2023-07-13T11:30:36;100829.75;;;28.11;32.40
17593;BME280;8915;51.760;14.300;2023-07-13T11:33:15;100817.81;;;28.09;33.21
17593;BME280;8915;51.760;14.300;2023-07-13T11:35:48;100819.97;;;28.14;33.55
17593;BME280;8915;51.760;14.300;2023-07-13T11:38:18;100817.22;;;28.26;34.50
17593;BME280;8915;51.760;14.300;2023-07-13T11:40:47;100821.97;;;28.35;33.69
17593;BME280;8915;51.760;14.300;2023-07-13T11:43:15;100814.78;;;28.41;33.99
17593;BME280;8915;51.760;14.300;2023-07-13T11:45:42;100811.50;;;28.46;32.73
17593;BME280;8915;51.760;14.300;2023-07-13T11:48:20;100809.66;;;28.55;32.57
17593;BME280;8915;51.760;14.300;2023-07-13T11:50:57;100808.03;;;28.67;31.65
17593;BME280;8915;51.760;14.300;2023-07-13T11:53:27;100816.91;;;28.80;30.99
17593;BME280;8915;51.760;14.300;2023-07-13T11:55:54;100824.13;;;28.74;32.62
17593;BME280;8915;51.760;14.300;2023-07-13T11:58:23;100816.75;;;28.62;30.72
17593;BME280;8915;51.760;14.300;2023-07-13T12:00:51;100818.22;;;28.54;32.08
17593;BME280;8915;51.760;14.300;2023-07-13T12:03:22;100822.38;;;28.46;31.86
17593;BME280;8915;51.760;14.300;2023-07-13T12:05:58;100817.22;;;28.26;31.36
17593;BME280;8915;51.760;14.300;2023-07-13T12:08:25;100830.22;;;28.31;31.66
17593;BME280;8915;51.760;14.300;2023-07-13T12:11:04;100830.38;;;28.15;31.69
17593;BME280;8915;51.760;14.300;2023-07-13T12:13:36;100834.41;;;28.11;32.07
17593;BME280;8915;51.760;14.300;2023-07-13T12:16:11;100832.50;;;27.86;32.25
17593;BME280;8915;51.760;14.300;2023-07-13T12:18:39;100830.84;;;27.76;32.67
17593;BME280;8915;51.760;14.300;2023-07-13T12:21:16;100834.56;;;27.70;33.74
17593;BME280;8915;51.760;14.300;2023-07-13T12:23:44;100837.59;;;27.72;33.04
17593;BME280;8915;51.760;14.300;2023-07-13T12:26:15;100845.41;;;27.82;34.34
17593;BME280;8915;51.760;14.300;2023-07-13T12:28:45;100838.78;;;27.71;32.94
17593;BME280;8915;51.760;14.300;2023-07-13T12:31:25;100837.28;;;27.70;33.49
17593;BME280;8915;51.760;14.300;2023-07-13T12:33:58;100833.25;;;27.74;33.22
17593;BME280;8915;51.760;14.300;2023-07-13T12:36:25;100835.06;;;27.77;34.14
17593;BME280;8915;51.760;14.300;2023-07-13T12:38:54;100828.06;;;27.67;32.52
17593;BME280;8915;51.760;14.300;2023-07-13T12:41:22;100822.16;;;27.69;33.76
17593;BME280;8915;51.760;14.300;2023-07-13T12:43:48;100820.13;;;27.85;32.93
17593;BME280;8915;51.760;14.300;2023-07-13T12:46:18;100820.34;;;27.91;31.87
17593;BME280;8915;51.760;14.300;2023-07-13T12:48:48;100817.50;;;28.07;33.00
17593;BME280;8915;51.760;14.300;2023-07-13T12:51:16;100809.63;;;28.21;33.02
17593;BME280;8915;51.760;14.300;2023-07-13T12:53:47;100811.41;;;28.37;32.69
17593;BME280;8915;51.760;14.300;2023-07-13T12:56:18;100794.34;;;28.49;32.79
17593;BME280;8915;51.760;14.300;2023-07-13T12:58:47;100800.94;;;28.60;31.74